This is the latest recevied weather packets stored in our database for station/object WA4IKQ. If no packets are shown the sender has not sent any weather packets the latest 10 day(s).
| Time | Temp. | Humidity | Pressure | Rain* | Wind** | Luminosity | Snow |
|---|---|---|---|---|---|---|---|
| 1777845282 | 24.44° C | 57% | 1015.9 hPa | 0 mm | 0.89 m/s, 20° | - | - |
| 1777845196 | 24.44° C | 57% | 1016 hPa | 0 mm | 4.47 m/s, 359° | - | - |
| 1777844980 | 24.44° C | 57% | 1016 hPa | 0 mm | 4.47 m/s, 359° | - | - |
| 1777843908 | 24.44° C | 57% | 1015.7 hPa | 0 mm | 2.24 m/s, 66° | - | - |
| 1777843778 | 24.44° C | 57% | 1015.7 hPa | 0 mm | 2.24 m/s, 66° | - | - |
| 1777843703 | 25° C | 56% | 1015.7 hPa | 0 mm | 2.68 m/s, 37° | - | - |
| 1777843477 | 25° C | 56% | 1015.7 hPa | 0 mm | 2.68 m/s, 37° | - | - |
| 1777843401 | 25° C | 56% | 1015.8 hPa | 0 mm | 2.68 m/s, 24° | - | - |
| 1777843181 | 25° C | 56% | 1015.8 hPa | 0 mm | 2.68 m/s, 24° | - | - |
| 1777842995 | 25° C | 56% | 1015.8 hPa | 0 mm | 1.79 m/s, 333° | - | - |
| 1777842883 | 25° C | 56% | 1015.8 hPa | 0 mm | 1.79 m/s, 333° | - | - |
| 1777842654 | 25° C | 56% | 1015.8 hPa | 0 mm | 1.79 m/s, 339° | - | - |
| 1777842576 | 25° C | 56% | 1015.8 hPa | 0 mm | 1.79 m/s, 339° | - | - |
| 1777842367 | 25.56° C | 56% | 1015.8 hPa | 0 mm | 4.02 m/s, 14° | - | - |
| 1777842279 | 25.56° C | 56% | 1015.8 hPa | 0 mm | 4.02 m/s, 14° | - | - |
| 1777841788 | 25° C | 57% | 1015.8 hPa | 0 mm | 3.58 m/s, 28° | - | - |
| 1777841510 | 25° C | 58% | 1015.8 hPa | 0 mm | 1.79 m/s, 30° | - | - |
| 1777841377 | 25° C | 58% | 1015.8 hPa | 0 mm | 1.79 m/s, 30° | - | - |
| 1777840565 | 25.56° C | 56% | 1016 hPa | 0 mm | 3.58 m/s, 326° | - | - |
| 1777840178 | 25.56° C | 56% | 1016 hPa | 0 mm | 3.58 m/s, 326° | - | - |
| 1777840109 | 25.56° C | 56% | 1015.9 hPa | 0 mm | 2.24 m/s, 46° | - | - |
| 1777839873 | 25.56° C | 56% | 1015.9 hPa | 0 mm | 2.24 m/s, 46° | - | - |
| 1777839701 | 25.56° C | 56% | 1016.1 hPa | 0 mm | 1.34 m/s, 14° | - | - |
| 1777839279 | 25.56° C | 56% | 1016.1 hPa | 0 mm | 1.34 m/s, 14° | - | - |
| 1777839223 | 25.56° C | 57% | 1016.1 hPa | 0 mm | 2.24 m/s, 65° | - | - |
* Rain latest hour (hover to see other rain measurements)
** Current wind speed in m/s (hover to see current wind gust speed)